createdAt,value
2018-03-07T00:00:14.352Z,31.07
2018-03-07T00:02:44.361Z,31.20
2018-03-07T00:05:13.999Z,29.57
2018-03-07T00:07:44.596Z,27.13
2018-03-07T00:10:14.146Z,32.63
2018-03-07T00:12:43.300Z,29.70
2018-03-07T00:15:11.677Z,30.73
2018-03-07T00:17:39.949Z,31.87
2018-03-07T00:20:08.196Z,28.30
2018-03-07T00:22:36.474Z,28.87
2018-03-07T00:25:04.762Z,30.50
2018-03-07T00:27:33.150Z,31.07
2018-03-07T00:30:01.393Z,30.37
2018-03-07T00:32:29.665Z,33.40
2018-03-07T00:34:57.942Z,33.67
2018-03-07T00:37:26.201Z,31.77
2018-03-07T00:39:54.460Z,31.93
2018-03-07T00:42:22.910Z,33.50
2018-03-07T00:44:51.142Z,31.93
2018-03-07T00:47:19.499Z,31.93
2018-03-07T00:49:47.902Z,34.17
2018-03-07T00:52:16.132Z,34.60
2018-03-07T00:54:45.169Z,33.43
2018-03-07T00:57:13.886Z,30.70
2018-03-07T00:59:42.181Z,31.03
2018-03-07T01:02:11.397Z,32.00
2018-03-07T01:04:39.697Z,31.10
2018-03-07T01:07:08.177Z,30.00
2018-03-07T01:09:36.566Z,30.67
2018-03-07T01:12:04.893Z,30.37
2018-03-07T01:14:33.132Z,32.37
2018-03-07T01:17:01.826Z,29.73
2018-03-07T01:19:30.080Z,32.97
2018-03-07T01:21:58.409Z,35.63
2018-03-07T01:24:26.616Z,33.07
2018-03-07T01:26:54.874Z,33.27
2018-03-07T01:29:26.072Z,33.70
2018-03-07T01:31:54.384Z,31.97
2018-03-07T01:34:22.650Z,33.73
2018-03-07T01:36:50.932Z,31.50
2018-03-07T01:39:19.167Z,33.47
2018-03-07T01:41:47.432Z,34.00
2018-03-07T01:44:15.714Z,32.90
2018-03-07T01:46:43.941Z,35.40
2018-03-07T01:49:12.957Z,33.40
2018-03-07T01:51:53.033Z,31.90
2018-03-07T01:54:21.262Z,31.27
2018-03-07T01:56:50.316Z,30.93
2018-03-07T01:59:18.589Z,34.00
2018-03-07T02:01:46.905Z,32.50
2018-03-07T02:04:15.128Z,35.07
2018-03-07T02:06:43.394Z,32.70
2018-03-07T02:09:11.659Z,35.27
2018-03-07T02:11:39.941Z,33.50
2018-03-07T02:14:09.311Z,34.07
2018-03-07T02:16:37.517Z,34.80
2018-03-07T02:19:05.805Z,37.30
2018-03-07T02:21:34.107Z,35.40
2018-03-07T02:24:02.538Z,34.73
2018-03-07T02:26:31.588Z,32.37
2018-03-07T02:28:59.825Z,32.53
2018-03-07T02:31:28.303Z,33.83
2018-03-07T02:33:56.534Z,36.13
2018-03-07T02:36:30.764Z,35.77
2018-03-07T02:38:59.106Z,33.03
2018-03-07T02:41:27.377Z,35.30
2018-03-07T02:43:55.826Z,34.10
2018-03-07T02:46:24.106Z,34.20
2018-03-07T02:48:52.713Z,32.67
2018-03-07T02:51:20.973Z,32.83
2018-03-07T02:53:49.273Z,33.30
2018-03-07T02:56:17.540Z,33.77
2018-03-07T02:58:45.769Z,31.73
2018-03-07T03:01:14.804Z,34.57
2018-03-07T03:03:43.086Z,34.97
2018-03-07T03:06:12.102Z,31.47
2018-03-07T03:08:40.574Z,32.63
2018-03-07T03:11:08.920Z,34.40
2018-03-07T03:13:37.169Z,33.63
2018-03-07T03:16:05.469Z,35.60
2018-03-07T03:18:33.737Z,34.40
2018-03-07T03:21:02.008Z,35.80
2018-03-07T03:23:30.269Z,35.33
2018-03-07T03:25:58.517Z,37.07
2018-03-07T03:28:26.986Z,34.67
2018-03-07T03:30:55.863Z,37.03
2018-03-07T03:33:25.593Z,35.20
2018-03-07T03:35:54.221Z,35.83
2018-03-07T03:38:23.250Z,34.13
2018-03-07T03:40:51.497Z,35.23
2018-03-07T03:43:19.754Z,34.60
2018-03-07T03:45:48.042Z,34.00
2018-03-07T03:48:17.141Z,39.27
2018-03-07T03:50:45.402Z,34.60
2018-03-07T03:53:13.684Z,34.97
2018-03-07T03:55:42.680Z,38.67
2018-03-07T03:58:12.590Z,34.43
2018-03-07T04:00:40.846Z,36.53
2018-03-07T04:03:09.223Z,37.53
2018-03-07T04:05:38.066Z,36.17
2018-03-07T04:08:06.408Z,36.40
2018-03-07T04:10:35.557Z,36.70
2018-03-07T04:13:03.805Z,41.17
2018-03-07T04:15:32.133Z,38.33
2018-03-07T04:18:00.537Z,37.20
2018-03-07T04:20:28.788Z,37.40
2018-03-07T04:22:57.097Z,37.23
2018-03-07T04:25:25.567Z,38.43
2018-03-07T04:27:53.818Z,48.47
2018-03-07T04:30:22.080Z,39.20
2018-03-07T04:32:50.474Z,36.90
2018-03-07T04:35:19.096Z,38.80
2018-03-07T04:37:47.370Z,44.20
2018-03-07T04:40:15.625Z,38.20
2018-03-07T04:42:43.905Z,36.83
2018-03-07T04:45:12.146Z,40.97
2018-03-07T04:47:40.415Z,38.10
2018-03-07T04:50:08.666Z,41.27
2018-03-07T04:52:36.965Z,39.03
2018-03-07T04:55:05.426Z,39.03
2018-03-07T04:57:34.488Z,38.73
2018-03-07T05:00:02.721Z,37.27
2018-03-07T05:02:31.025Z,39.47
2018-03-07T05:05:00.302Z,37.20
2018-03-07T05:07:29.411Z,39.43
2018-03-07T05:09:57.827Z,40.83
2018-03-07T05:12:26.053Z,38.10
2018-03-07T05:14:54.322Z,39.47
2018-03-07T05:17:22.597Z,39.60
2018-03-07T05:19:50.861Z,38.57
2018-03-07T05:22:19.138Z,38.63
2018-03-07T05:24:47.383Z,38.37
2018-03-07T05:27:16.395Z,40.17
2018-03-07T05:29:44.673Z,39.03
2018-03-07T05:32:13.083Z,41.20
2018-03-07T05:34:41.360Z,38.43
2018-03-07T05:37:09.677Z,40.63
2018-03-07T05:39:38.198Z,42.30
2018-03-07T05:42:06.444Z,44.30
2018-03-07T05:44:35.120Z,41.70
2018-03-07T05:47:03.416Z,46.50
2018-03-07T05:49:31.774Z,44.30
2018-03-07T05:52:00.120Z,42.50
2018-03-07T05:54:28.644Z,35.27
2018-03-07T05:56:56.945Z,36.17
2018-03-07T05:59:25.239Z,37.20
2018-03-07T06:01:53.676Z,39.07
2018-03-07T06:04:21.939Z,45.20
2018-03-07T06:06:50.197Z,41.27
2018-03-07T06:09:18.449Z,39.20
2018-03-07T06:11:46.725Z,44.17
2018-03-07T06:14:15.993Z,41.80
2018-03-07T06:16:45.004Z,41.60
2018-03-07T06:19:13.241Z,39.17
2018-03-07T06:21:41.529Z,51.83
2018-03-07T06:24:09.762Z,43.93
2018-03-07T06:26:38.035Z,38.83
2018-03-07T06:29:06.510Z,41.70
2018-03-07T06:31:34.777Z,42.33
2018-03-07T06:34:03.106Z,41.90
2018-03-07T06:36:31.381Z,37.33
2018-03-07T06:38:59.618Z,40.90
2018-03-07T06:41:27.886Z,40.27
2018-03-07T06:43:56.131Z,42.03
2018-03-07T06:46:24.445Z,36.70
2018-03-07T06:48:52.701Z,42.40
2018-03-07T06:51:20.997Z,44.90
2018-03-07T06:53:49.263Z,39.97
2018-03-07T06:56:17.541Z,43.17
2018-03-07T06:58:46.598Z,37.97
2018-03-07T07:01:15.813Z,36.67
2018-03-07T07:03:44.073Z,41.67
2018-03-07T07:06:12.356Z,40.60
2018-03-07T07:08:41.769Z,43.80
2018-03-07T07:11:10.125Z,40.80
2018-03-07T07:13:38.382Z,38.30
2018-03-07T07:16:06.811Z,40.17
2018-03-07T07:18:35.069Z,40.53
2018-03-07T07:21:04.061Z,38.77
2018-03-07T07:23:32.434Z,40.77
2018-03-07T07:26:01.479Z,39.50
2018-03-07T07:28:29.734Z,40.10
2018-03-07T07:30:57.973Z,37.83
2018-03-07T07:33:26.260Z,38.23
2018-03-07T07:35:54.533Z,37.83
2018-03-07T07:38:22.832Z,41.30
2018-03-07T07:40:51.077Z,38.87
2018-03-07T07:43:19.396Z,39.50
2018-03-07T07:45:47.617Z,38.70
2018-03-07T07:48:15.884Z,42.40
2018-03-07T07:50:45.861Z,51.80
2018-03-07T07:53:14.974Z,39.70
2018-03-07T07:55:43.242Z,44.13
2018-03-07T07:58:11.538Z,44.43
2018-03-07T08:00:39.785Z,43.10
2018-03-07T08:03:08.065Z,42.00
2018-03-07T08:05:36.329Z,51.40
2018-03-07T08:08:04.590Z,47.93
2018-03-07T08:10:33.105Z,43.30
2018-03-07T08:13:01.387Z,42.37
2018-03-07T08:15:29.679Z,40.00
2018-03-07T08:17:57.967Z,44.40
2018-03-07T08:20:26.205Z,43.03
2018-03-07T08:22:54.593Z,41.27
2018-03-07T08:25:22.881Z,44.53
2018-03-07T08:27:51.154Z,41.97
2018-03-07T08:30:19.414Z,40.03
2018-03-07T08:32:47.688Z,43.53
2018-03-07T08:35:15.941Z,42.17
2018-03-07T08:37:44.189Z,43.73
2018-03-07T08:40:12.447Z,43.93
2018-03-07T08:42:40.697Z,44.90
2018-03-07T08:45:09.002Z,44.50
2018-03-07T08:47:37.271Z,45.47
2018-03-07T08:50:05.529Z,47.77
2018-03-07T08:52:33.783Z,42.63
2018-03-07T08:55:02.025Z,46.20
2018-03-07T08:57:30.317Z,45.43
2018-03-07T08:59:59.435Z,49.00
2018-03-07T09:02:27.685Z,42.07
2018-03-07T09:04:55.944Z,50.50
2018-03-07T09:07:24.191Z,47.77
2018-03-07T09:09:53.374Z,48.13
2018-03-07T09:12:21.653Z,43.90
2018-03-07T09:14:49.909Z,43.70
2018-03-07T09:17:18.283Z,39.70
2018-03-07T09:19:47.916Z,41.73
2018-03-07T09:22:16.341Z,38.30
2018-03-07T09:24:44.826Z,36.90
2018-03-07T09:27:13.092Z,37.23
2018-03-07T09:29:42.874Z,37.90
2018-03-07T09:32:11.245Z,33.90
2018-03-07T09:34:41.022Z,33.70
2018-03-07T09:37:09.269Z,29.37
2018-03-07T09:39:37.555Z,27.73
2018-03-07T09:42:06.574Z,25.00
2018-03-07T09:44:34.837Z,19.87
2018-03-07T09:47:04.705Z,16.93
2018-03-07T09:49:33.846Z,18.27
2018-03-07T09:52:02.873Z,18.50
2018-03-07T09:54:31.155Z,15.47
2018-03-07T09:56:59.406Z,16.50
2018-03-07T09:59:27.974Z,13.90
2018-03-07T10:01:57.029Z,15.50
2018-03-07T10:04:25.648Z,19.83
2018-03-07T10:06:53.928Z,17.80
2018-03-07T10:09:27.102Z,16.30
2018-03-07T10:11:56.256Z,16.87
2018-03-07T10:14:24.570Z,18.17
2018-03-07T10:16:57.637Z,19.50
2018-03-07T10:19:26.778Z,15.60
2018-03-07T10:21:56.107Z,15.00
2018-03-07T10:24:24.653Z,18.20
2018-03-07T10:26:53.151Z,17.90
2018-03-07T10:29:21.788Z,16.17
2018-03-07T10:31:50.156Z,17.63
2018-03-07T10:34:18.670Z,16.23
2018-03-07T10:36:47.054Z,14.67
2018-03-07T10:39:15.496Z,12.73
2018-03-07T10:41:43.805Z,14.57
2018-03-07T10:44:12.818Z,13.73
2018-03-07T10:46:41.135Z,14.60
2018-03-07T10:49:11.566Z,15.77
2018-03-07T10:51:41.829Z,14.57
2018-03-07T10:54:10.271Z,14.60
2018-03-07T10:56:40.024Z,16.23
2018-03-07T10:59:10.096Z,14.03
2018-03-07T11:01:38.485Z,15.77
2018-03-07T11:04:07.048Z,14.17
2018-03-07T11:06:35.458Z,18.53
2018-03-07T11:09:03.865Z,16.50
2018-03-07T11:11:32.780Z,14.87
2018-03-07T11:14:01.912Z,13.73
2018-03-07T11:16:30.523Z,14.33
2018-03-07T11:18:59.719Z,19.43
2018-03-07T11:21:28.112Z,14.70
2018-03-07T11:23:56.589Z,40.10
2018-03-07T11:26:26.012Z,13.70
2018-03-07T11:28:55.983Z,14.00
2018-03-07T11:31:28.685Z,13.53
2018-03-07T11:33:57.782Z,9.63
2018-03-07T11:36:26.401Z,9.53
2018-03-07T11:38:54.682Z,10.27
2018-03-07T11:41:22.979Z,8.37
2018-03-07T11:43:51.469Z,12.67
2018-03-07T11:46:19.756Z,10.67
2018-03-07T11:48:48.013Z,10.87
2018-03-07T11:51:17.456Z,11.00
2018-03-07T11:53:49.862Z,15.13
2018-03-07T11:56:18.204Z,10.67
2018-03-07T11:58:46.466Z,9.90
2018-03-07T12:01:14.773Z,8.80
2018-03-07T12:03:43.770Z,9.80
2018-03-07T12:06:12.079Z,8.40
2018-03-07T12:08:40.607Z,7.90
2018-03-07T12:11:09.694Z,9.33
2018-03-07T12:13:38.954Z,16.90
2018-03-07T12:16:07.312Z,14.10
2018-03-07T12:18:36.335Z,15.67
2018-03-07T12:21:05.804Z,15.90
2018-03-07T12:23:34.122Z,13.00
2018-03-07T12:26:02.441Z,13.70
2018-03-07T12:28:31.494Z,10.50
2018-03-07T12:30:59.744Z,11.13
2018-03-07T12:33:28.010Z,9.83
2018-03-07T12:35:56.252Z,11.00
2018-03-07T12:38:24.576Z,9.63
2018-03-07T12:40:54.739Z,8.93
2018-03-07T12:43:23.050Z,7.70
2018-03-07T12:45:51.281Z,7.67
2018-03-07T12:48:19.649Z,6.13
2018-03-07T12:50:47.884Z,8.40
2018-03-07T12:53:16.134Z,6.10
2018-03-07T12:55:44.520Z,8.23
2018-03-07T12:58:12.754Z,6.90
2018-03-07T13:00:41.024Z,7.40
2018-03-07T13:03:10.065Z,7.63
2018-03-07T13:05:39.068Z,8.32
2018-03-07T13:08:07.337Z,8.67
2018-03-07T13:10:35.641Z,9.50
2018-03-07T13:13:03.956Z,7.17
2018-03-07T13:15:32.170Z,9.20
2018-03-07T13:18:00.414Z,8.40
2018-03-07T13:20:28.740Z,8.23
2018-03-07T13:22:57.083Z,8.53
2018-03-07T13:25:25.416Z,7.57
2018-03-07T13:27:55.582Z,9.90
2018-03-07T13:30:23.809Z,8.77
2018-03-07T13:32:52.954Z,9.37
2018-03-07T13:35:21.222Z,9.50
2018-03-07T13:37:49.486Z,8.90
2018-03-07T13:40:17.798Z,9.50
2018-03-07T13:42:46.043Z,7.97
2018-03-07T13:45:14.918Z,7.87
2018-03-07T13:47:43.197Z,8.70
2018-03-07T13:50:11.469Z,9.23
2018-03-07T13:52:39.735Z,8.67
2018-03-07T13:55:08.018Z,9.23
2018-03-07T13:57:36.528Z,8.77
2018-03-07T14:00:05.612Z,8.40
2018-03-07T14:02:35.434Z,9.60
2018-03-07T14:05:05.317Z,8.10
2018-03-07T14:07:33.652Z,22.13
2018-03-07T14:10:01.888Z,7.97
2018-03-07T14:12:30.129Z,8.33
2018-03-07T14:14:59.400Z,10.00
2018-03-07T14:17:27.618Z,8.37
2018-03-07T14:19:55.849Z,9.60
2018-03-07T14:22:24.229Z,10.63
2018-03-07T14:24:53.340Z,10.20
2018-03-07T14:27:21.582Z,16.03
2018-03-07T14:29:49.833Z,9.63
2018-03-07T14:32:18.155Z,8.73
2018-03-07T14:34:46.398Z,9.30
2018-03-07T14:37:14.724Z,10.57
2018-03-07T14:39:42.962Z,9.47
2018-03-07T14:42:11.224Z,10.53
2018-03-07T14:44:39.481Z,8.93
2018-03-07T14:47:07.743Z,11.00
2018-03-07T14:49:36.063Z,10.53
2018-03-07T14:52:05.333Z,9.60
2018-03-07T14:54:33.607Z,13.13
2018-03-07T14:57:01.839Z,11.40
2018-03-07T14:59:30.081Z,8.87
2018-03-07T15:01:58.394Z,9.70
2018-03-07T15:04:26.626Z,14.27
2018-03-07T15:06:55.050Z,9.10
2018-03-07T15:09:23.290Z,12.17
2018-03-07T15:11:52.527Z,8.13
2018-03-07T15:14:20.799Z,9.17
2018-03-07T15:16:49.225Z,8.60
2018-03-07T15:19:17.409Z,8.40
2018-03-07T15:21:45.779Z,8.93
2018-03-07T15:24:14.889Z,10.40
2018-03-07T15:26:43.926Z,9.00
2018-03-07T15:29:14.780Z,10.37
2018-03-07T15:31:43.775Z,6.60
2018-03-07T15:34:12.031Z,15.03
2018-03-07T15:36:40.272Z,8.90
2018-03-07T15:39:08.523Z,6.50
2018-03-07T15:41:36.780Z,10.03
2018-03-07T15:44:05.898Z,9.63
2018-03-07T15:46:35.008Z,5.10
2018-03-07T15:49:03.782Z,5.70
2018-03-07T15:51:32.075Z,6.20
2018-03-07T15:54:00.302Z,6.57
2018-03-07T15:56:28.562Z,7.70
2018-03-07T15:58:56.811Z,5.77
2018-03-07T16:01:25.043Z,9.67
2018-03-07T16:03:53.310Z,5.60
2018-03-07T16:06:22.483Z,5.83
2018-03-07T16:08:50.762Z,4.57
2018-03-07T16:11:20.508Z,5.23
2018-03-07T16:13:48.758Z,5.10
2018-03-07T16:16:17.012Z,4.40
2018-03-07T16:18:45.255Z,3.90
2018-03-07T16:21:15.089Z,3.77
2018-03-07T16:23:43.330Z,4.17
2018-03-07T16:26:11.582Z,4.43
2018-03-07T16:28:39.864Z,3.77
2018-03-07T16:31:08.120Z,4.53
2018-03-07T16:33:36.379Z,4.37
2018-03-07T16:36:04.621Z,5.10
2018-03-07T16:38:32.858Z,5.60
2018-03-07T16:41:01.098Z,4.50
2018-03-07T16:43:29.352Z,4.20
2018-03-07T16:45:57.642Z,4.20
2018-03-07T16:48:25.922Z,6.50
2018-03-07T16:50:54.149Z,5.07
2018-03-07T16:53:22.426Z,4.77
2018-03-07T16:55:50.687Z,4.90
2018-03-07T16:58:19.682Z,4.00
2018-03-07T17:00:48.086Z,5.30
2018-03-07T17:03:16.346Z,5.40
2018-03-07T17:05:45.353Z,4.13
2018-03-07T17:08:13.622Z,5.17
2018-03-07T17:10:41.872Z,3.67
2018-03-07T17:13:10.142Z,3.47
2018-03-07T17:15:38.365Z,3.00
2018-03-07T17:18:06.622Z,4.10
2018-03-07T17:20:35.842Z,7.10
2018-03-07T17:23:04.116Z,4.30
2018-03-07T17:25:32.358Z,3.10
2018-03-07T17:28:00.635Z,3.77
2018-03-07T17:30:29.044Z,6.03
2018-03-07T17:32:58.060Z,3.40
2018-03-07T17:35:26.310Z,4.37
2018-03-07T17:37:54.554Z,4.70
2018-03-07T17:40:23.602Z,3.20
2018-03-07T17:42:51.880Z,4.07
2018-03-07T17:45:20.168Z,3.97
2018-03-07T17:47:48.462Z,3.67
2018-03-07T17:50:16.683Z,3.97
2018-03-07T17:52:44.939Z,3.77
2018-03-07T17:55:15.967Z,3.50
2018-03-07T17:57:44.266Z,3.33
2018-03-07T18:00:13.349Z,4.77
2018-03-07T18:02:42.429Z,4.10
2018-03-07T18:05:12.280Z,4.00
2018-03-07T18:07:40.520Z,3.83
2018-03-07T18:10:08.792Z,3.37
2018-03-07T18:12:37.034Z,4.30
2018-03-07T18:15:05.305Z,6.07
2018-03-07T18:17:33.549Z,4.23
2018-03-07T18:20:01.806Z,3.63
2018-03-07T18:22:30.084Z,3.37
2018-03-07T18:24:58.705Z,3.37
2018-03-07T18:27:27.147Z,3.10
2018-03-07T18:29:55.885Z,3.43
2018-03-07T18:32:24.131Z,3.57
2018-03-07T18:34:53.134Z,4.30
2018-03-07T18:37:21.389Z,4.67
2018-03-07T18:39:49.641Z,5.10
2018-03-07T18:42:17.857Z,4.50
2018-03-07T18:44:47.015Z,4.50
2018-03-07T18:47:16.026Z,4.83
2018-03-07T18:49:45.068Z,4.97
2018-03-07T18:52:13.322Z,4.20
2018-03-07T18:54:42.605Z,5.60
2018-03-07T18:57:10.842Z,4.90
2018-03-07T18:59:39.071Z,4.20
2018-03-07T19:02:07.350Z,4.23
2018-03-07T19:04:35.595Z,4.20
2018-03-07T19:07:03.981Z,5.03
2018-03-07T19:09:32.263Z,4.27
2018-03-07T19:12:00.487Z,5.10
2018-03-07T19:14:28.899Z,6.80
2018-03-07T19:16:57.273Z,5.50
2018-03-07T19:19:25.552Z,5.90
2018-03-07T19:21:53.798Z,6.57
2018-03-07T19:24:22.123Z,5.47
2018-03-07T19:26:50.770Z,7.47
2018-03-07T19:29:18.998Z,5.40
2018-03-07T19:31:47.255Z,4.47
2018-03-07T19:34:16.273Z,4.30
2018-03-07T19:36:44.507Z,4.97
2018-03-07T19:39:14.299Z,4.80
2018-03-07T19:41:42.526Z,5.00
2018-03-07T19:44:10.841Z,4.70
2018-03-07T19:46:39.266Z,4.90
2018-03-07T19:49:07.525Z,6.47
2018-03-07T19:51:35.768Z,5.67
2018-03-07T19:54:04.017Z,5.07
2018-03-07T19:56:32.303Z,5.57
2018-03-07T19:59:00.753Z,4.73
2018-03-07T20:01:29.023Z,5.30
2018-03-07T20:03:58.899Z,5.80
2018-03-07T20:06:27.186Z,5.73
2018-03-07T20:08:56.078Z,5.73
2018-03-07T20:11:24.360Z,5.73
2018-03-07T20:13:52.625Z,6.33
2018-03-07T20:16:20.859Z,7.37
2018-03-07T20:18:50.074Z,5.73
2018-03-07T20:21:18.331Z,8.40
2018-03-07T20:23:46.598Z,6.27
2018-03-07T20:26:14.854Z,6.13
2018-03-07T20:28:43.078Z,7.37
2018-03-07T20:31:11.339Z,6.97
2018-03-07T20:33:39.601Z,8.17
2018-03-07T20:36:08.646Z,7.30
2018-03-07T20:38:36.935Z,7.87
2018-03-07T20:41:05.278Z,8.33
2018-03-07T20:43:33.846Z,9.10
2018-03-07T20:46:02.102Z,7.80
2018-03-07T20:48:30.370Z,8.27
2018-03-07T20:50:58.661Z,8.57
2018-03-07T20:53:26.957Z,8.43
2018-03-07T20:55:55.185Z,13.07
2018-03-07T20:58:25.202Z,9.10
2018-03-07T21:00:53.437Z,9.57
2018-03-07T21:03:22.586Z,11.90
2018-03-07T21:05:51.630Z,9.80
2018-03-07T21:08:19.908Z,9.30
2018-03-07T21:10:49.209Z,10.63
2018-03-07T21:13:17.486Z,9.83
2018-03-07T21:15:46.558Z,10.20
2018-03-07T21:18:14.811Z,11.00
2018-03-07T21:20:43.088Z,12.00
2018-03-07T21:23:11.350Z,14.80
2018-03-07T21:25:39.601Z,14.40
2018-03-07T21:28:08.786Z,14.23
2018-03-07T21:30:37.030Z,15.43
2018-03-07T21:33:05.293Z,16.23
2018-03-07T21:35:34.332Z,15.10
2018-03-07T21:38:02.637Z,14.13
2018-03-07T21:40:30.995Z,15.00
2018-03-07T21:43:00.114Z,14.83
2018-03-07T21:45:28.336Z,18.13
2018-03-07T21:47:56.593Z,13.33
2018-03-07T21:50:24.889Z,14.07
2018-03-07T21:52:53.218Z,13.20
2018-03-07T21:55:21.488Z,14.60
2018-03-07T21:57:50.763Z,12.50
2018-03-07T22:00:19.173Z,14.13
2018-03-07T22:02:48.206Z,12.43
2018-03-07T22:05:16.526Z,14.10
2018-03-07T22:07:44.822Z,13.53
2018-03-07T22:10:14.743Z,12.63
2018-03-07T22:12:42.976Z,13.13
2018-03-07T22:15:11.281Z,12.63
2018-03-07T22:17:39.563Z,10.60
2018-03-07T22:20:07.793Z,12.80
2018-03-07T22:22:36.118Z,14.20
2018-03-07T22:25:06.111Z,13.70
2018-03-07T22:27:34.330Z,13.83
2018-03-07T22:30:03.377Z,14.70
2018-03-07T22:32:31.657Z,12.70
2018-03-07T22:34:59.943Z,12.33
2018-03-07T22:37:29.072Z,12.07
2018-03-07T22:39:57.377Z,12.10
2018-03-07T22:42:25.617Z,12.80
2018-03-07T22:44:53.875Z,11.40
2018-03-07T22:47:23.145Z,10.40
2018-03-07T22:49:51.950Z,12.07
2018-03-07T22:52:20.989Z,9.40
2018-03-07T22:54:49.249Z,9.67
2018-03-07T22:57:17.489Z,11.43
2018-03-07T22:59:45.813Z,11.37
2018-03-07T23:02:14.073Z,12.27
2018-03-07T23:04:42.308Z,13.13
2018-03-07T23:07:10.789Z,12.43
2018-03-07T23:09:39.027Z,13.30
2018-03-07T23:12:08.045Z,14.13
2018-03-07T23:14:36.319Z,14.60
2018-03-07T23:17:05.406Z,15.80
2018-03-07T23:19:33.616Z,16.43
2018-03-07T23:22:01.893Z,13.93
2018-03-07T23:24:30.110Z,16.03
2018-03-07T23:26:59.287Z,16.57
2018-03-07T23:29:27.550Z,16.83
2018-03-07T23:31:55.839Z,16.97
2018-03-07T23:34:24.141Z,18.13
2018-03-07T23:36:52.406Z,18.13
2018-03-07T23:39:22.893Z,16.07
2018-03-07T23:41:51.111Z,15.87
2018-03-07T23:44:20.145Z,17.67
2018-03-07T23:46:48.581Z,18.80
2018-03-07T23:49:16.845Z,16.77
2018-03-07T23:51:45.094Z,18.47
2018-03-07T23:54:14.878Z,18.20
2018-03-07T23:56:43.316Z,17.97
2018-03-07T23:59:12.026Z,19.47
